sensor_id;sensor_type;location;lat;lon;timestamp;pressure;altitude;pressure_sealevel;temperature;humidity
55010;BME280;40903;51.638;7.528;2022-07-21T00:01:49;101171.66;;;20.74;100.00
55010;BME280;40903;51.638;7.528;2022-07-21T00:04:15;101169.22;;;20.72;100.00
55010;BME280;40903;51.638;7.528;2022-07-21T00:06:41;101164.00;;;20.71;100.00
55010;BME280;40903;51.638;7.528;2022-07-21T00:09:07;101155.25;;;20.69;100.00
55010;BME280;40903;51.638;7.528;2022-07-21T00:11:32;101142.22;;;20.69;100.00
55010;BME280;40903;51.638;7.528;2022-07-21T00:13:58;101146.13;;;20.68;100.00
55010;BME280;40903;51.638;7.528;2022-07-21T00:16:24;101152.84;;;20.67;100.00
55010;BME280;40903;51.638;7.528;2022-07-21T00:18:49;101138.16;;;20.67;100.00
55010;BME280;40903;51.638;7.528;2022-07-21T00:21:14;101141.97;;;20.62;100.00
55010;BME280;40903;51.638;7.528;2022-07-21T00:23:40;101127.66;;;20.60;100.00
55010;BME280;40903;51.638;7.528;2022-07-21T00:26:05;101118.41;;;20.56;100.00
55010;BME280;40903;51.638;7.528;2022-07-21T00:28:30;101127.75;;;20.52;100.00
55010;BME280;40903;51.638;7.528;2022-07-21T00:30:56;101140.00;;;20.51;100.00
55010;BME280;40903;51.638;7.528;2022-07-21T00:33:21;101151.41;;;20.49;100.00
55010;BME280;40903;51.638;7.528;2022-07-21T00:35:47;101162.50;;;20.49;100.00
55010;BME280;40903;51.638;7.528;2022-07-21T00:38:12;101157.31;;;20.48;100.00
55010;BME280;40903;51.638;7.528;2022-07-21T00:40:38;101159.66;;;20.46;100.00
55010;BME280;40903;51.638;7.528;2022-07-21T00:43:04;101157.06;;;20.41;100.00
55010;BME280;40903;51.638;7.528;2022-07-21T00:45:29;101157.78;;;20.38;100.00
55010;BME280;40903;51.638;7.528;2022-07-21T00:47:55;101158.94;;;20.37;100.00
55010;BME280;40903;51.638;7.528;2022-07-21T00:50:21;101167.59;;;20.35;100.00
55010;BME280;40903;51.638;7.528;2022-07-21T00:52:47;101167.59;;;20.35;100.00
55010;BME280;40903;51.638;7.528;2022-07-21T00:55:15;101173.81;;;20.32;100.00
55010;BME280;40903;51.638;7.528;2022-07-21T00:57:41;101171.41;;;20.31;100.00
55010;BME280;40903;51.638;7.528;2022-07-21T01:00:10;101166.31;;;20.33;100.00
55010;BME280;40903;51.638;7.528;2022-07-21T01:02:36;101166.66;;;20.31;100.00
55010;BME280;40903;51.638;7.528;2022-07-21T01:05:07;101162.50;;;20.25;100.00
55010;BME280;40903;51.638;7.528;2022-07-21T01:07:34;101163.66;;;20.24;100.00
55010;BME280;40903;51.638;7.528;2022-07-21T01:10:00;101170.34;;;20.23;100.00
55010;BME280;40903;51.638;7.528;2022-07-21T01:12:25;101177.03;;;20.22;100.00
55010;BME280;40903;51.638;7.528;2022-07-21T01:14:51;101173.81;;;20.20;100.00
55010;BME280;40903;51.638;7.528;2022-07-21T01:17:17;101184.06;;;20.20;100.00
55010;BME280;40903;51.638;7.528;2022-07-21T01:19:43;101193.53;;;20.19;100.00
55010;BME280;40903;51.638;7.528;2022-07-21T01:22:09;101186.00;;;20.19;100.00
55010;BME280;40903;51.638;7.528;2022-07-21T01:24:34;101199.06;;;20.19;100.00
55010;BME280;40903;51.638;7.528;2022-07-21T01:27:00;101195.97;;;20.20;100.00
55010;BME280;40903;51.638;7.528;2022-07-21T01:29:26;101202.63;;;20.19;100.00
55010;BME280;40903;51.638;7.528;2022-07-21T01:31:52;101209.31;;;20.18;100.00
55010;BME280;40903;51.638;7.528;2022-07-21T01:34:17;101208.06;;;20.16;100.00
55010;BME280;40903;51.638;7.528;2022-07-21T01:36:43;101204.16;;;20.17;100.00
55010;BME280;40903;51.638;7.528;2022-07-21T01:39:09;101185.09;;;20.15;100.00
55010;BME280;40903;51.638;7.528;2022-07-21T01:41:53;101192.25;;;20.16;100.00
55010;BME280;40903;51.638;7.528;2022-07-21T01:44:19;101192.59;;;20.15;100.00
55010;BME280;40903;51.638;7.528;2022-07-21T01:46:47;101197.78;;;20.16;100.00
55010;BME280;40903;51.638;7.528;2022-07-21T01:49:15;101191.31;;;20.12;100.00
55010;BME280;40903;51.638;7.528;2022-07-21T01:51:41;101180.94;;;20.09;100.00
55010;BME280;40903;51.638;7.528;2022-07-21T01:54:09;101168.69;;;20.10;100.00
55010;BME280;40903;51.638;7.528;2022-07-21T01:56:35;101170.41;;;20.03;100.00
55010;BME280;40903;51.638;7.528;2022-07-21T01:59:02;101165.41;;;19.96;100.00
55010;BME280;40903;51.638;7.528;2022-07-21T02:01:28;101161.34;;;19.94;100.00
55010;BME280;40903;51.638;7.528;2022-07-21T02:03:56;101167.91;;;19.89;100.00
55010;BME280;40903;51.638;7.528;2022-07-21T02:06:22;101177.72;;;19.87;100.00
55010;BME280;40903;51.638;7.528;2022-07-21T02:08:48;101192.81;;;19.89;100.00
55010;BME280;40903;51.638;7.528;2022-07-21T02:11:14;101187.16;;;19.86;100.00
55010;BME280;40903;51.638;7.528;2022-07-21T02:13:40;101191.09;;;19.85;100.00
55010;BME280;40903;51.638;7.528;2022-07-21T02:16:06;101191.88;;;19.86;100.00
55010;BME280;40903;51.638;7.528;2022-07-21T02:18:32;101191.88;;;19.86;100.00
55010;BME280;40903;51.638;7.528;2022-07-21T02:20:58;101190.13;;;19.81;100.00
55010;BME280;40903;51.638;7.528;2022-07-21T02:23:24;101189.66;;;19.79;100.00
55010;BME280;40903;51.638;7.528;2022-07-21T02:25:51;101178.94;;;19.78;100.00
55010;BME280;40903;51.638;7.528;2022-07-21T02:28:20;101174.56;;;19.77;100.00
55010;BME280;40903;51.638;7.528;2022-07-21T02:30:46;101183.66;;;19.77;100.00
55010;BME280;40903;51.638;7.528;2022-07-21T02:33:12;101184.81;;;19.76;100.00
55010;BME280;40903;51.638;7.528;2022-07-21T02:35:38;101187.25;;;19.78;100.00
55010;BME280;40903;51.638;7.528;2022-07-21T02:38:04;101197.19;;;19.79;100.00
55010;BME280;40903;51.638;7.528;2022-07-21T02:40:30;101196.34;;;19.78;100.00
55010;BME280;40903;51.638;7.528;2022-07-21T02:42:55;101204.19;;;19.76;100.00
55010;BME280;40903;51.638;7.528;2022-07-21T02:45:21;101203.72;;;19.74;100.00
55010;BME280;40903;51.638;7.528;2022-07-21T02:47:57;101205.19;;;19.72;100.00
55010;BME280;40903;51.638;7.528;2022-07-21T02:50:25;101202.09;;;19.73;100.00
55010;BME280;40903;51.638;7.528;2022-07-21T02:52:56;101203.81;;;19.66;100.00
55010;BME280;40903;51.638;7.528;2022-07-21T02:55:23;101205.13;;;19.60;100.00
55010;BME280;40903;51.638;7.528;2022-07-21T02:57:48;101191.53;;;19.55;100.00
55010;BME280;40903;51.638;7.528;2022-07-21T03:00:14;101200.63;;;19.55;100.00
55010;BME280;40903;51.638;7.528;2022-07-21T03:02:40;101199.69;;;19.51;100.00
55010;BME280;40903;51.638;7.528;2022-07-21T03:05:05;101200.22;;;19.45;100.00
55010;BME280;40903;51.638;7.528;2022-07-21T03:07:31;101195.72;;;19.40;100.00
55010;BME280;40903;51.638;7.528;2022-07-21T03:09:56;101186.81;;;19.35;100.00
55010;BME280;40903;51.638;7.528;2022-07-21T03:12:21;101186.81;;;19.35;100.00
55010;BME280;40903;51.638;7.528;2022-07-21T03:14:47;101185.88;;;19.31;100.00
55010;BME280;40903;51.638;7.528;2022-07-21T03:17:12;101178.22;;;19.28;100.00
55010;BME280;40903;51.638;7.528;2022-07-21T03:19:37;101169.47;;;19.26;100.00
55010;BME280;40903;51.638;7.528;2022-07-21T03:22:02;101182.59;;;19.29;100.00
55010;BME280;40903;51.638;7.528;2022-07-21T03:24:28;101176.97;;;19.25;100.00
55010;BME280;40903;51.638;7.528;2022-07-21T03:26:54;101181.00;;;19.28;100.00
55010;BME280;40903;51.638;7.528;2022-07-21T03:29:20;101187.88;;;19.22;100.00
55010;BME280;40903;51.638;7.528;2022-07-21T03:31:45;101173.59;;;19.20;100.00
55010;BME280;40903;51.638;7.528;2022-07-21T03:34:10;101172.75;;;19.19;100.00
55010;BME280;40903;51.638;7.528;2022-07-21T03:36:36;101167.09;;;19.16;100.00
55010;BME280;40903;51.638;7.528;2022-07-21T03:39:01;101169.03;;;19.15;100.00
55010;BME280;40903;51.638;7.528;2022-07-21T03:41:26;101175.69;;;19.14;100.00
55010;BME280;40903;51.638;7.528;2022-07-21T03:43:52;101170.16;;;19.14;100.00
55010;BME280;40903;51.638;7.528;2022-07-21T03:46:17;101182.38;;;19.13;100.00
55010;BME280;40903;51.638;7.528;2022-07-21T03:48:42;101182.69;;;19.12;100.00
55010;BME280;40903;51.638;7.528;2022-07-21T03:51:08;101178.78;;;19.13;100.00
55010;BME280;40903;51.638;7.528;2022-07-21T03:53:34;101183.38;;;19.09;100.00
55010;BME280;40903;51.638;7.528;2022-07-21T03:56:00;101175.41;;;19.07;100.00
55010;BME280;40903;51.638;7.528;2022-07-21T03:58:26;101172.69;;;18.99;100.00
55010;BME280;40903;51.638;7.528;2022-07-21T04:00:51;101164.13;;;18.92;100.00
55010;BME280;40903;51.638;7.528;2022-07-21T04:03:16;101162.53;;;18.91;100.00
55010;BME280;40903;51.638;7.528;2022-07-21T04:05:42;101149.38;;;18.88;100.00
55010;BME280;40903;51.638;7.528;2022-07-21T04:08:08;101151.78;;;18.89;100.00
55010;BME280;40903;51.638;7.528;2022-07-21T04:10:36;101146.72;;;18.91;100.00
55010;BME280;40903;51.638;7.528;2022-07-21T04:13:05;101143.03;;;18.87;100.00
55010;BME280;40903;51.638;7.528;2022-07-21T04:15:31;101147.88;;;18.90;100.00
55010;BME280;40903;51.638;7.528;2022-07-21T04:17:57;101149.19;;;18.93;100.00
55010;BME280;40903;51.638;7.528;2022-07-21T04:20:23;101148.84;;;18.94;100.00
55010;BME280;40903;51.638;7.528;2022-07-21T04:22:49;101145.25;;;18.94;100.00
55010;BME280;40903;51.638;7.528;2022-07-21T04:25:15;101141.34;;;18.95;100.00
55010;BME280;40903;51.638;7.528;2022-07-21T04:27:41;101146.88;;;18.95;100.00
55010;BME280;40903;51.638;7.528;2022-07-21T04:30:09;101136.97;;;18.94;100.00
55010;BME280;40903;51.638;7.528;2022-07-21T04:32:35;101130.28;;;18.95;100.00
55010;BME280;40903;51.638;7.528;2022-07-21T04:35:00;101119.59;;;18.93;100.00
55010;BME280;40903;51.638;7.528;2022-07-21T04:37:26;101116.47;;;18.95;100.00
55010;BME280;40903;51.638;7.528;2022-07-21T04:39:51;101122.94;;;18.99;100.00
55010;BME280;40903;51.638;7.528;2022-07-21T04:42:17;101121.16;;;19.03;100.00
55010;BME280;40903;51.638;7.528;2022-07-21T04:44:42;101127.63;;;19.07;100.00
55010;BME280;40903;51.638;7.528;2022-07-21T04:47:07;101139.59;;;19.11;100.00
55010;BME280;40903;51.638;7.528;2022-07-21T04:49:33;101142.06;;;19.12;100.00
55010;BME280;40903;51.638;7.528;2022-07-21T04:51:58;101154.25;;;19.11;100.00
55010;BME280;40903;51.638;7.528;2022-07-21T04:54:23;101147.59;;;19.12;100.00
55010;BME280;40903;51.638;7.528;2022-07-21T04:56:49;101151.13;;;19.13;100.00
55010;BME280;40903;51.638;7.528;2022-07-21T04:59:14;101153.25;;;19.16;100.00
55010;BME280;40903;51.638;7.528;2022-07-21T05:01:40;101145.94;;;19.20;100.00
55010;BME280;40903;51.638;7.528;2022-07-21T05:04:05;101147.69;;;19.24;100.00
55010;BME280;40903;51.638;7.528;2022-07-21T05:06:31;101139.41;;;19.24;100.00
55010;BME280;40903;51.638;7.528;2022-07-21T05:08:56;101152.41;;;19.24;100.00
55010;BME280;40903;51.638;7.528;2022-07-21T05:11:22;101156.78;;;19.25;100.00
55010;BME280;40903;51.638;7.528;2022-07-21T05:13:47;101152.41;;;19.24;100.00
55010;BME280;40903;51.638;7.528;2022-07-21T05:16:13;101155.50;;;19.22;100.00
55010;BME280;40903;51.638;7.528;2022-07-21T05:18:38;101160.69;;;19.24;100.00
55010;BME280;40903;51.638;7.528;2022-07-21T05:21:04;101161.16;;;19.26;100.00
55010;BME280;40903;51.638;7.528;2022-07-21T05:23:29;101161.97;;;19.26;100.00
55010;BME280;40903;51.638;7.528;2022-07-21T05:25:55;101159.69;;;19.28;100.00
55010;BME280;40903;51.638;7.528;2022-07-21T05:28:20;101160.97;;;19.31;100.00
55010;BME280;40903;51.638;7.528;2022-07-21T05:30:46;101154.22;;;19.40;100.00
55010;BME280;40903;51.638;7.528;2022-07-21T05:33:11;101154.63;;;19.51;100.00
55010;BME280;40903;51.638;7.528;2022-07-21T05:35:37;101157.78;;;19.61;100.00
55010;BME280;40903;51.638;7.528;2022-07-21T05:38:02;101149.38;;;19.70;100.00
55010;BME280;40903;51.638;7.528;2022-07-21T05:40:27;101149.66;;;19.77;100.00
55010;BME280;40903;51.638;7.528;2022-07-21T05:42:53;101154.06;;;19.89;100.00
55010;BME280;40903;51.638;7.528;2022-07-21T05:45:18;101147.16;;;19.95;100.00
55010;BME280;40903;51.638;7.528;2022-07-21T05:47:44;101149.19;;;20.07;100.00
55010;BME280;40903;51.638;7.528;2022-07-21T05:50:10;101151.28;;;20.22;100.00
55010;BME280;40903;51.638;7.528;2022-07-21T05:52:35;101161.25;;;20.35;100.00
55010;BME280;40903;51.638;7.528;2022-07-21T05:55:01;101152.94;;;20.47;99.42
55010;BME280;40903;51.638;7.528;2022-07-21T05:57:27;101165.78;;;20.51;96.79
55010;BME280;40903;51.638;7.528;2022-07-21T05:59:52;101164.59;;;20.64;98.74
55010;BME280;40903;51.638;7.528;2022-07-21T06:02:18;101177.66;;;20.76;97.61
55010;BME280;40903;51.638;7.528;2022-07-21T06:04:43;101175.59;;;20.85;96.92
55010;BME280;40903;51.638;7.528;2022-07-21T06:07:09;101179.53;;;20.84;96.80
55010;BME280;40903;51.638;7.528;2022-07-21T06:09:34;101177.22;;;20.74;94.87
55010;BME280;40903;51.638;7.528;2022-07-21T06:12:00;101178.34;;;20.73;95.97
55010;BME280;40903;51.638;7.528;2022-07-21T06:14:26;101178.34;;;20.73;96.98
55010;BME280;40903;51.638;7.528;2022-07-21T06:16:51;101169.47;;;20.67;95.89
55010;BME280;40903;51.638;7.528;2022-07-21T06:19:16;101172.34;;;20.71;96.81
55010;BME280;40903;51.638;7.528;2022-07-21T06:21:42;101177.41;;;20.81;95.74
55010;BME280;40903;51.638;7.528;2022-07-21T06:24:08;101173.16;;;21.07;97.40
55010;BME280;40903;51.638;7.528;2022-07-21T06:26:34;101175.50;;;21.33;96.58
55010;BME280;40903;51.638;7.528;2022-07-21T06:29:00;101175.91;;;21.59;92.92
55010;BME280;40903;51.638;7.528;2022-07-21T06:31:26;101177.34;;;21.80;91.97
55010;BME280;40903;51.638;7.528;2022-07-21T06:33:52;101175.53;;;22.00;89.74
55010;BME280;40903;51.638;7.528;2022-07-21T06:36:17;101190.59;;;22.14;87.95
55010;BME280;40903;51.638;7.528;2022-07-21T06:38:43;101185.16;;;22.17;86.09
55010;BME280;40903;51.638;7.528;2022-07-21T06:41:10;101186.13;;;22.25;87.70
55010;BME280;40903;51.638;7.528;2022-07-21T06:43:35;101189.47;;;22.30;85.31
55010;BME280;40903;51.638;7.528;2022-07-21T06:46:01;101188.59;;;22.42;85.33
55010;BME280;40903;51.638;7.528;2022-07-21T06:48:27;101195.44;;;22.44;83.95
55010;BME280;40903;51.638;7.528;2022-07-21T06:50:53;101195.38;;;22.29;82.24
55010;BME280;40903;51.638;7.528;2022-07-21T06:53:20;101187.84;;;22.29;82.98
55010;BME280;40903;51.638;7.528;2022-07-21T06:55:45;101189.47;;;22.30;86.30
55010;BME280;40903;51.638;7.528;2022-07-21T06:58:16;101197.34;;;22.28;83.99
55010;BME280;40903;51.638;7.528;2022-07-21T07:00:43;101194.91;;;22.27;84.00
55010;BME280;40903;51.638;7.528;2022-07-21T07:03:09;101199.31;;;22.28;84.65
55010;BME280;40903;51.638;7.528;2022-07-21T07:05:35;101198.06;;;22.25;83.99
55010;BME280;40903;51.638;7.528;2022-07-21T07:08:01;101197.63;;;22.23;84.36
55010;BME280;40903;51.638;7.528;2022-07-21T07:10:27;101205.59;;;22.25;85.50
55010;BME280;40903;51.638;7.528;2022-07-21T07:12:53;101203.72;;;22.29;86.31
55010;BME280;40903;51.638;7.528;2022-07-21T07:15:20;101206.03;;;22.27;84.82
55010;BME280;40903;51.638;7.528;2022-07-21T07:17:45;101205.25;;;22.26;85.00
55010;BME280;40903;51.638;7.528;2022-07-21T07:20:11;101215.44;;;22.22;85.12
55010;BME280;40903;51.638;7.528;2022-07-21T07:22:36;101206.69;;;22.36;85.54
55010;BME280;40903;51.638;7.528;2022-07-21T07:25:02;101208.53;;;22.59;86.16
55010;BME280;40903;51.638;7.528;2022-07-21T07:27:27;101202.50;;;22.73;85.59
55010;BME280;40903;51.638;7.528;2022-07-21T07:29:55;101207.63;;;22.86;85.10
55010;BME280;40903;51.638;7.528;2022-07-21T07:32:21;101203.84;;;22.94;83.59
55010;BME280;40903;51.638;7.528;2022-07-21T07:34:46;101205.25;;;23.04;79.15
55010;BME280;40903;51.638;7.528;2022-07-21T07:37:12;101205.00;;;23.09;79.18
55010;BME280;40903;51.638;7.528;2022-07-21T07:39:37;101211.78;;;23.11;78.87
55010;BME280;40903;51.638;7.528;2022-07-21T07:42:04;101213.78;;;23.11;76.56
55010;BME280;40903;51.638;7.528;2022-07-21T07:44:30;101217.81;;;23.13;75.26
55010;BME280;40903;51.638;7.528;2022-07-21T07:46:56;101216.22;;;23.12;76.29
55010;BME280;40903;51.638;7.528;2022-07-21T07:49:21;101220.50;;;23.10;74.58
55010;BME280;40903;51.638;7.528;2022-07-21T07:51:47;101216.81;;;23.06;78.82
55010;BME280;40903;51.638;7.528;2022-07-21T07:54:14;101222.03;;;23.07;80.30
55010;BME280;40903;51.638;7.528;2022-07-21T07:56:39;101216.31;;;23.16;79.98
55010;BME280;40903;51.638;7.528;2022-07-21T07:59:05;101220.88;;;23.24;78.65
55010;BME280;40903;51.638;7.528;2022-07-21T08:01:30;101222.63;;;23.32;74.13
55010;BME280;40903;51.638;7.528;2022-07-21T08:03:55;101215.16;;;23.36;75.98
55010;BME280;40903;51.638;7.528;2022-07-21T08:06:21;101227.03;;;23.33;72.23
55010;BME280;40903;51.638;7.528;2022-07-21T08:08:48;101219.53;;;23.18;72.33
55010;BME280;40903;51.638;7.528;2022-07-21T08:11:14;101222.59;;;23.13;72.97
55010;BME280;40903;51.638;7.528;2022-07-21T08:13:40;101220.50;;;23.10;73.08
55010;BME280;40903;51.638;7.528;2022-07-21T08:16:06;101219.09;;;23.16;72.81
55010;BME280;40903;51.638;7.528;2022-07-21T08:18:32;101220.50;;;23.25;73.78
55010;BME280;40903;51.638;7.528;2022-07-21T08:20:57;101212.84;;;23.38;75.96
55010;BME280;40903;51.638;7.528;2022-07-21T08:23:23;101215.94;;;23.52;76.40
55010;BME280;40903;51.638;7.528;2022-07-21T08:25:48;101213.09;;;23.67;77.72
55010;BME280;40903;51.638;7.528;2022-07-21T08:28:16;101209.56;;;23.70;72.66
55010;BME280;40903;51.638;7.528;2022-07-21T08:30:42;101205.25;;;23.73;73.66
55010;BME280;40903;51.638;7.528;2022-07-21T08:33:08;101206.66;;;23.63;70.20
55010;BME280;40903;51.638;7.528;2022-07-21T08:35:33;101209.00;;;23.61;71.10
55010;BME280;40903;51.638;7.528;2022-07-21T08:38:05;101214.84;;;23.56;73.01
55010;BME280;40903;51.638;7.528;2022-07-21T08:40:35;101212.88;;;23.57;71.47
55010;BME280;40903;51.638;7.528;2022-07-21T08:43:02;101210.09;;;23.57;69.77
55010;BME280;40903;51.638;7.528;2022-07-21T08:45:28;101219.31;;;23.80;71.42
55010;BME280;40903;51.638;7.528;2022-07-21T08:47:56;101218.19;;;24.00;68.88
55010;BME280;40903;51.638;7.528;2022-07-21T08:50:24;101212.22;;;24.20;67.74
55010;BME280;40903;51.638;7.528;2022-07-21T08:52:50;101210.84;;;24.33;69.03
55010;BME280;40903;51.638;7.528;2022-07-21T08:55:15;101202.38;;;24.48;70.63
55010;BME280;40903;51.638;7.528;2022-07-21T08:57:41;101205.81;;;24.61;72.29
55010;BME280;40903;51.638;7.528;2022-07-21T09:00:08;101198.38;;;24.68;68.83
55010;BME280;40903;51.638;7.528;2022-07-21T09:02:35;101200.47;;;24.75;69.57
55010;BME280;40903;51.638;7.528;2022-07-21T09:05:03;101195.72;;;24.75;65.97
55010;BME280;40903;51.638;7.528;2022-07-21T09:07:46;101210.69;;;24.67;66.09
55010;BME280;40903;51.638;7.528;2022-07-21T09:10:13;101212.75;;;24.70;68.27
55010;BME280;40903;51.638;7.528;2022-07-21T09:12:52;101206.44;;;24.73;68.37
55010;BME280;40903;51.638;7.528;2022-07-21T09:15:19;101204.44;;;24.74;68.78
55010;BME280;40903;51.638;7.528;2022-07-21T09:17:45;101202.22;;;24.83;66.95
55010;BME280;40903;51.638;7.528;2022-07-21T09:20:24;101201.63;;;24.96;67.35
55010;BME280;40903;51.638;7.528;2022-07-21T09:23:11;101198.63;;;25.08;69.12
55010;BME280;40903;51.638;7.528;2022-07-21T09:25:48;101199.53;;;25.16;66.06
55010;BME280;40903;51.638;7.528;2022-07-21T09:28:28;101194.56;;;25.28;60.70
55010;BME280;40903;51.638;7.528;2022-07-21T09:31:02;101194.69;;;25.35;60.29
55010;BME280;40903;51.638;7.528;2022-07-21T09:33:40;101202.16;;;25.28;62.52
55010;BME280;40903;51.638;7.528;2022-07-21T09:36:14;101209.81;;;25.34;62.71
55010;BME280;40903;51.638;7.528;2022-07-21T09:38:49;101205.72;;;25.28;61.00
55010;BME280;40903;51.638;7.528;2022-07-21T09:41:18;101205.72;;;25.28;58.97
55010;BME280;40903;51.638;7.528;2022-07-21T09:43:48;101205.00;;;25.31;59.70
55010;BME280;40903;51.638;7.528;2022-07-21T09:46:19;101198.59;;;25.31;60.50
55010;BME280;40903;51.638;7.528;2022-07-21T09:48:48;101200.75;;;25.44;60.93
55010;BME280;40903;51.638;7.528;2022-07-21T09:56:26;101197.63;;;25.20;59.47
55010;BME280;40903;51.638;7.528;2022-07-21T09:58:54;101205.47;;;25.14;58.42
55010;BME280;40903;51.638;7.528;2022-07-21T10:01:20;101213.44;;;25.12;58.26
55010;BME280;40903;51.638;7.528;2022-07-21T10:03:47;101211.41;;;25.09;60.79
55010;BME280;40903;51.638;7.528;2022-07-21T10:06:14;101211.06;;;25.14;61.32
55010;BME280;40903;51.638;7.528;2022-07-21T10:08:42;101212.91;;;25.29;60.78
55010;BME280;40903;51.638;7.528;2022-07-21T10:11:08;101206.88;;;25.53;59.44
55010;BME280;40903;51.638;7.528;2022-07-21T10:13:34;101211.66;;;25.82;60.78
55010;BME280;40903;51.638;7.528;2022-07-21T10:16:00;101204.97;;;26.23;57.48
55010;BME280;40903;51.638;7.528;2022-07-21T10:18:32;101207.84;;;26.30;56.19
55010;BME280;40903;51.638;7.528;2022-07-21T10:21:10;101212.59;;;26.66;57.02
55010;BME280;40903;51.638;7.528;2022-07-21T10:23:41;101207.13;;;27.27;55.57
55010;BME280;40903;51.638;7.528;2022-07-21T10:26:08;101203.81;;;27.72;52.91
55010;BME280;40903;51.638;7.528;2022-07-21T10:28:34;101211.91;;;27.98;51.20
55010;BME280;40903;51.638;7.528;2022-07-21T10:31:15;101216.63;;;27.73;46.87
55010;BME280;40903;51.638;7.528;2022-07-21T10:39:17;101207.75;;;27.10;48.99
55010;BME280;40903;51.638;7.528;2022-07-21T10:41:47;101217.44;;;26.69;51.41
55010;BME280;40903;51.638;7.528;2022-07-21T10:47:08;101213.53;;;26.04;54.70
55010;BME280;40903;51.638;7.528;2022-07-21T10:49:46;101221.47;;;25.99;55.62
55010;BME280;40903;51.638;7.528;2022-07-21T10:57:39;101207.56;;;26.42;56.80
55010;BME280;40903;51.638;7.528;2022-07-21T11:00:22;101208.28;;;26.35;51.16
55010;BME280;40903;51.638;7.528;2022-07-21T11:02:57;101201.13;;;26.38;51.67
55010;BME280;40903;51.638;7.528;2022-07-21T11:05:24;101200.38;;;26.41;53.63
55010;BME280;40903;51.638;7.528;2022-07-21T11:08:12;101204.78;;;26.42;53.28
55010;BME280;40903;51.638;7.528;2022-07-21T11:10:41;101203.75;;;26.57;52.51
55010;BME280;40903;51.638;7.528;2022-07-21T11:13:07;101205.06;;;26.70;54.02
55010;BME280;40903;51.638;7.528;2022-07-21T11:15:44;101200.28;;;26.74;51.21
55010;BME280;40903;51.638;7.528;2022-07-21T11:18:11;101208.25;;;26.68;53.22
55010;BME280;40903;51.638;7.528;2022-07-21T11:20:40;101205.66;;;26.49;52.32
55010;BME280;40903;51.638;7.528;2022-07-21T11:23:06;101200.88;;;26.50;53.89
55010;BME280;40903;51.638;7.528;2022-07-21T11:25:34;101196.78;;;26.44;49.66
55010;BME280;40903;51.638;7.528;2022-07-21T11:27:59;101193.91;;;26.33;51.73
55010;BME280;40903;51.638;7.528;2022-07-21T11:30:25;101199.50;;;26.33;52.33
55010;BME280;40903;51.638;7.528;2022-07-21T11:32:51;101191.94;;;26.37;52.99
55010;BME280;40903;51.638;7.528;2022-07-21T11:35:17;101195.16;;;26.39;52.71
55010;BME280;40903;51.638;7.528;2022-07-21T11:37:44;101190.22;;;26.26;54.75
55010;BME280;40903;51.638;7.528;2022-07-21T11:40:12;101202.94;;;26.20;51.34
55010;BME280;40903;51.638;7.528;2022-07-21T11:42:39;101206.22;;;25.93;52.88
55010;BME280;40903;51.638;7.528;2022-07-21T11:45:06;101214.63;;;25.63;53.57
55010;BME280;40903;51.638;7.528;2022-07-21T11:47:32;101224.47;;;25.28;59.55
55010;BME280;40903;51.638;7.528;2022-07-21T11:50:00;101226.53;;;25.08;62.74
55010;BME280;40903;51.638;7.528;2022-07-21T11:52:31;101229.66;;;25.03;63.48
55010;BME280;40903;51.638;7.528;2022-07-21T11:54:59;101232.31;;;24.96;64.55
55010;BME280;40903;51.638;7.528;2022-07-21T11:57:25;101228.59;;;24.89;64.48
55010;BME280;40903;51.638;7.528;2022-07-21T11:59:53;101229.38;;;24.86;64.60
55010;BME280;40903;51.638;7.528;2022-07-21T12:02:19;101223.72;;;24.82;63.40
55010;BME280;40903;51.638;7.528;2022-07-21T12:04:46;101219.72;;;24.80;63.76
55010;BME280;40903;51.638;7.528;2022-07-21T12:09:43;101227.75;;;24.85;65.10
55010;BME280;40903;51.638;7.528;2022-07-21T12:12:10;101228.94;;;24.84;62.41
55010;BME280;40903;51.638;7.528;2022-07-21T12:14:49;101228.69;;;24.70;62.06
55010;BME280;40903;51.638;7.528;2022-07-21T12:17:35;101234.31;;;24.51;63.31
55010;BME280;40903;51.638;7.528;2022-07-21T12:20:01;101227.47;;;24.26;64.82
55010;BME280;40903;51.638;7.528;2022-07-21T12:22:38;101237.53;;;24.12;63.42
55010;BME280;40903;51.638;7.528;2022-07-21T12:25:04;101225.25;;;24.16;65.70
55010;BME280;40903;51.638;7.528;2022-07-21T12:27:33;101229.81;;;24.24;66.94
55010;BME280;40903;51.638;7.528;2022-07-21T12:29:59;101226.59;;;24.22;66.89
55010;BME280;40903;51.638;7.528;2022-07-21T12:32:44;101234.00;;;24.15;67.10
55010;BME280;40903;51.638;7.528;2022-07-21T12:35:26;101241.88;;;23.90;67.85
55010;BME280;40903;51.638;7.528;2022-07-21T12:40:22;101252.31;;;23.43;73.81
55010;BME280;40903;51.638;7.528;2022-07-21T12:42:47;101254.09;;;23.17;75.32
55010;BME280;40903;51.638;7.528;2022-07-21T12:45:15;101250.03;;;22.99;76.01
55010;BME280;40903;51.638;7.528;2022-07-21T12:47:41;101246.56;;;22.86;78.04
55010;BME280;40903;51.638;7.528;2022-07-21T12:50:09;101243.97;;;22.78;79.92
55010;BME280;40903;51.638;7.528;2022-07-21T12:52:39;101244.59;;;22.71;79.96
55010;BME280;40903;51.638;7.528;2022-07-21T12:55:05;101246.66;;;22.74;81.05
55010;BME280;40903;51.638;7.528;2022-07-21T12:57:32;101243.59;;;22.79;83.08
55010;BME280;40903;51.638;7.528;2022-07-21T12:59:59;101248.53;;;22.86;83.40
55010;BME280;40903;51.638;7.528;2022-07-21T13:02:26;101243.59;;;22.95;81.99
55010;BME280;40903;51.638;7.528;2022-07-21T13:04:53;101245.50;;;22.91;80.96
55010;BME280;40903;51.638;7.528;2022-07-21T13:07:19;101240.72;;;22.91;80.27
55010;BME280;40903;51.638;7.528;2022-07-21T13:09:44;101242.53;;;22.99;82.91